PDT,Max TemperatureF,Mean TemperatureF,Min TemperatureF,Max Dew PointF,MeanDew PointF,Min DewpointF,Max Humidity, Mean Humidity, Min Humidity, Max Sea Level PressureIn, Mean Sea Level PressureIn, Min Sea Level PressureIn, Max VisibilityMiles, Mean VisibilityMiles, Min VisibilityMiles, Max Wind SpeedMPH, Mean Wind SpeedMPH, Max Gust SpeedMPH,PrecipitationIn, CloudCover, Events, WindDirDegrees
2013-10-1,56,51,46,49,47,45,100,91,72,30.16,30.02,29.94,10,9,3,15,8,18,0.68,7,Rain,185
2013-10-2,55,50,44,48,47,45,100,91,71,30.21,30.12,30.06,10,9,2,12,4,,0.17,7,Rain,190
2013-10-3,56,48,38,50,45,37,100,95,64,30.48,30.36,30.19,10,7,0,7,2,,0.03,6,Fog-Rain,236
2013-10-4,63,49,35,51,39,36,100,97,53,30.50,30.45,30.36,10,2,0,5,1,,0.00,0,Fog,155
2013-10-5,68,52,37,50,41,37,100,95,43,30.38,30.32,30.15,10,2,0,7,1,,0.00,0,Fog,165
2013-10-6,75,56,37,52,41,37,100,93,29,30.14,30.07,29.92,10,3,0,20,2,26,0.03,0,Fog-Rain,161
2013-10-7,59,54,50,53,50,46,100,91,63,30.06,29.98,29.93,10,10,4,18,11,24,0.15,7,Rain,196
2013-10-8,55,46,37,47,43,36,100,89,67,30.10,30.04,29.97,10,5,0,15,7,24,0.07,3,Fog-Rain-Thunderstorm,180
2013-10-9,57,44,32,46,38,32,100,95,60,30.17,30.10,29.97,10,4,0,6,2,,0.00,1,Fog-Rain,195
2013-10-10,55,48,41,54,50,42,100,96,75,30.09,30.02,29.97,10,4,1,8,3,,0.04,8,Rain,215
2013-10-11,55,48,41,52,47,42,100,96,74,30.17,30.12,30.08,10,6,0,6,3,,0.00,6,Fog,184
2013-10-12,55,50,44,48,47,44,100,90,72,30.24,30.13,30.09,10,10,4,9,4,,0.16,8,Rain,342
2013-10-13,57,47,37,50,41,36,100,97,65,30.39,30.30,30.23,10,3,0,7,2,,0.00,2,Fog,123
2013-10-14,58,45,32,53,37,32,100,98,60,30.45,30.39,30.37,10,2,0,12,2,,0.00,1,Fog,126
2013-10-15,59,46,32,50,40,32,100,98,63,30.41,30.35,30.19,10,2,0,6,2,,0.00,2,Fog,155
2013-10-16,54,46,39,52,43,37,100,98,80,30.23,30.19,30.16,10,3,0,9,2,,0.00,3,Fog,147
2013-10-17,57,47,37,50,42,37,100,97,72,30.30,30.25,30.21,10,3,0,7,1,,0.00,3,Fog,145
2013-10-18,52,44,37,52,42,37,100,100,93,30.27,30.22,30.16,10,1,0,6,1,,0.00,3,Fog,166
2013-10-19,48,44,39,48,44,39,100,100,100,30.22,30.18,30.15,4,1,0,6,2,,0.01,8,Fog,95
2013-10-20,49,47,44,49,47,45,100,100,93,30.23,30.20,30.16,10,4,0,6,3,,0.01,8,Fog,44
2013-10-21,50,47,44,50,47,44,100,100,94,30.19,30.15,30.11,9,2,0,7,3,,0.00,8,Fog,52
2013-10-22,53,48,44,52,47,44,100,100,93,30.14,30.09,30.04,9,2,0,6,3,,0.00,6,Fog,49
2013-10-23,57,49,41,54,46,41,100,100,81,30.08,30.03,29.99,10,1,0,5,1,,0.01,2,Fog,142
2013-10-24,50,45,41,50,45,41,100,100,100,30.16,30.07,30.03,5,1,0,5,1,,0.01,2,Fog,179
2013-10-25,53,46,39,54,47,39,100,99,93,30.34,30.27,30.14,10,6,0,6,2,,0.00,6,Fog,92
2013-10-26,51,45,39,49,44,39,100,99,86,30.36,30.32,30.22,10,5,0,6,1,,0.01,7,Fog,133
2013-10-27,55,50,44,51,47,45,100,97,77,30.22,29.97,29.92,10,8,3,14,5,,0.03,7,Rain,75
2013-10-28,57,46,35,46,37,32,93,61,40,29.97,29.93,29.89,10,10,10,23,11,31,0.00,2,,37
2013-10-29,57,43,29,38,34,29,99,81,44,30.06,30.03,29.98,10,10,10,6,3,,0.00,0,,160
2013-10-30,57,43,29,47,41,29,99,80,62,30.16,30.13,30.07,10,10,9,15,5,18,0.00,7,Rain,182
2013-10-31,53,50,46,54,50,43,100,98,76,30.29,30.18,30.11,10,8,3,9,4,,0.05,8,Rain,183